createdAt,value
2023-05-12T00:01:38.297Z,8.37
2023-05-12T00:04:07.270Z,7.13
2023-05-12T00:06:35.925Z,8.60
2023-05-12T00:09:04.342Z,10.37
2023-05-12T00:11:32.698Z,7.20
2023-05-12T00:14:01.097Z,6.70
2023-05-12T00:16:31.145Z,9.20
2023-05-12T00:18:59.605Z,6.97
2023-05-12T00:21:28.015Z,7.27
2023-05-12T00:23:56.575Z,10.03
2023-05-12T00:26:24.903Z,9.23
2023-05-12T00:28:53.623Z,8.40
2023-05-12T00:31:22.000Z,7.13
2023-05-12T00:33:51.776Z,8.77
2023-05-12T00:36:20.061Z,7.73
2023-05-12T00:38:48.482Z,9.73
2023-05-12T00:41:16.940Z,10.27
2023-05-12T00:43:45.233Z,9.37
2023-05-12T00:46:14.124Z,7.53
2023-05-12T00:48:42.631Z,7.43
2023-05-12T00:51:14.148Z,8.07
2023-05-12T00:53:49.906Z,6.10
2023-05-12T00:56:19.963Z,7.17
2023-05-12T00:58:48.707Z,12.23
2023-05-12T01:01:17.403Z,12.73
2023-05-12T01:03:46.776Z,7.20
2023-05-12T01:06:19.753Z,6.97
2023-05-12T01:08:49.201Z,8.37
2023-05-12T01:11:17.549Z,14.30
2023-05-12T01:13:45.903Z,10.03
2023-05-12T01:16:18.409Z,6.70
2023-05-12T01:18:51.492Z,7.67
2023-05-12T01:21:21.767Z,6.90
2023-05-12T01:23:56.249Z,8.50
2023-05-12T01:26:26.490Z,10.80
2023-05-12T01:28:55.481Z,10.73
2023-05-12T01:31:25.080Z,10.17
2023-05-12T01:33:53.559Z,9.03
2023-05-12T01:36:21.884Z,10.80
2023-05-12T01:38:50.274Z,10.77
2023-05-12T01:41:18.570Z,8.40
2023-05-12T01:43:49.466Z,6.60
2023-05-12T01:46:17.843Z,7.90
2023-05-12T01:48:46.239Z,9.33
2023-05-12T01:51:14.517Z,8.40
2023-05-12T01:53:43.131Z,7.77
2023-05-12T01:56:11.546Z,7.50
2023-05-12T01:58:39.897Z,8.63
2023-05-12T02:01:09.729Z,9.47
2023-05-12T02:03:39.333Z,6.57
2023-05-12T02:06:07.944Z,12.00
2023-05-12T02:08:36.198Z,7.27
2023-05-12T02:11:08.305Z,11.03
2023-05-12T02:13:36.897Z,7.20
2023-05-12T02:16:05.813Z,7.40
2023-05-12T02:18:35.648Z,12.70
2023-05-12T02:21:04.054Z,9.33
2023-05-12T02:23:32.357Z,8.13
2023-05-12T02:26:00.769Z,9.67
2023-05-12T02:28:29.050Z,9.90
2023-05-12T02:30:57.323Z,7.87
2023-05-12T02:33:26.964Z,7.73
2023-05-12T02:35:56.680Z,8.17
2023-05-12T02:38:25.074Z,7.47
2023-05-12T02:40:53.491Z,10.53
2023-05-12T02:43:21.846Z,7.90
2023-05-12T02:45:50.258Z,8.57
2023-05-12T02:48:18.568Z,8.07
2023-05-12T02:50:46.937Z,8.80
2023-05-12T02:53:16.706Z,7.77
2023-05-12T02:55:45.304Z,10.90
2023-05-12T02:58:13.645Z,8.83
2023-05-12T03:00:42.028Z,7.50
2023-05-12T03:03:10.523Z,9.27
2023-05-12T03:05:39.043Z,7.50
2023-05-12T03:08:07.429Z,10.77
2023-05-12T03:10:37.810Z,7.40
2023-05-12T03:13:06.202Z,7.47
2023-05-12T03:15:34.741Z,7.27
2023-05-12T03:18:03.018Z,8.73
2023-05-12T03:20:31.431Z,7.33
2023-05-12T03:22:59.832Z,8.10
2023-05-12T03:25:28.388Z,14.47
2023-05-12T03:27:58.174Z,8.50
2023-05-12T03:30:26.521Z,6.07
2023-05-12T03:32:54.882Z,9.80
2023-05-12T03:35:23.440Z,8.70
2023-05-12T03:37:51.843Z,8.13
2023-05-12T03:40:20.460Z,9.87
2023-05-12T03:42:48.987Z,5.83
2023-05-12T03:45:19.207Z,5.20
2023-05-12T03:47:47.636Z,11.40
2023-05-12T03:50:16.145Z,12.50
2023-05-12T03:52:44.539Z,5.80
2023-05-12T03:55:12.885Z,5.80
2023-05-12T03:57:41.253Z,5.60
2023-05-12T04:00:10.837Z,5.20
2023-05-12T04:02:41.578Z,6.70
2023-05-12T04:05:10.440Z,5.83
2023-05-12T04:07:39.473Z,6.10
2023-05-12T04:10:09.278Z,7.47
2023-05-12T04:12:37.703Z,5.27
2023-05-12T04:15:07.467Z,4.93
2023-05-12T04:17:36.026Z,4.70
2023-05-12T04:20:06.930Z,5.00
2023-05-12T04:22:35.229Z,4.63
2023-05-12T04:25:03.663Z,4.97
2023-05-12T04:27:32.036Z,6.27
2023-05-12T04:30:00.656Z,4.80
2023-05-12T04:32:28.984Z,5.87
2023-05-12T04:34:57.685Z,7.30
2023-05-12T04:37:27.414Z,8.90
2023-05-12T04:39:55.731Z,5.00
2023-05-12T04:42:24.054Z,8.60
2023-05-12T04:44:52.494Z,8.37
2023-05-12T04:47:20.842Z,5.40
2023-05-12T04:49:49.195Z,5.33
2023-05-12T04:52:17.551Z,4.33
2023-05-12T04:54:47.396Z,6.23
2023-05-12T04:57:15.979Z,4.77
2023-05-12T04:59:44.304Z,4.43
2023-05-12T05:02:13.176Z,4.30
2023-05-12T05:04:41.881Z,6.50
2023-05-12T05:07:10.197Z,4.40
2023-05-12T05:09:38.545Z,7.50
2023-05-12T05:12:09.409Z,6.07
2023-05-12T05:14:37.829Z,4.83
2023-05-12T05:17:07.989Z,7.27
2023-05-12T05:19:50.913Z,4.10
2023-05-12T05:22:24.483Z,4.20
2023-05-12T05:24:53.057Z,4.80
2023-05-12T05:27:22.927Z,4.97
2023-05-12T05:29:51.306Z,9.27
2023-05-12T05:32:20.875Z,4.50
2023-05-12T05:34:49.248Z,9.23
2023-05-12T05:37:19.208Z,6.87
2023-05-12T05:39:47.675Z,9.50
2023-05-12T05:42:16.005Z,8.70
2023-05-12T05:44:46.014Z,4.60
2023-05-12T05:47:14.381Z,5.43
2023-05-12T05:49:42.697Z,4.77
2023-05-12T05:52:10.964Z,5.20
2023-05-12T05:54:39.481Z,3.90
2023-05-12T05:57:08.579Z,4.77
2023-05-12T05:59:36.897Z,6.10
2023-05-12T06:02:07.011Z,4.30
2023-05-12T06:04:35.827Z,5.73
2023-05-12T06:07:04.190Z,6.70
2023-05-12T06:09:33.249Z,5.63
2023-05-12T06:12:01.628Z,4.83
2023-05-12T06:14:30.107Z,10.50
2023-05-12T06:16:58.595Z,7.40
2023-05-12T06:19:28.614Z,6.27
2023-05-12T06:21:56.920Z,5.53
2023-05-12T06:24:25.305Z,5.80
2023-05-12T06:26:53.711Z,4.40
2023-05-12T06:29:22.350Z,4.70
2023-05-12T06:31:50.782Z,4.50
2023-05-12T06:34:19.108Z,3.90
2023-05-12T06:36:49.115Z,9.00
2023-05-12T06:39:17.584Z,4.23
2023-05-12T06:41:45.954Z,4.33
2023-05-12T06:44:14.353Z,4.70
2023-05-12T06:46:42.903Z,4.23
2023-05-12T06:49:11.289Z,4.63
2023-05-12T06:51:39.675Z,6.70
2023-05-12T06:54:09.364Z,4.63
2023-05-12T06:56:37.955Z,4.53
2023-05-12T06:59:06.231Z,3.80
2023-05-12T07:01:34.703Z,4.63
2023-05-12T07:04:03.056Z,5.97
2023-05-12T07:06:32.252Z,6.73
2023-05-12T07:09:00.575Z,5.00
2023-05-12T07:11:30.385Z,8.00
2023-05-12T07:13:58.722Z,8.43
2023-05-12T07:16:27.098Z,5.43
2023-05-12T07:18:55.592Z,4.57
2023-05-12T07:21:24.627Z,4.50
2023-05-12T07:23:52.949Z,5.90
2023-05-12T07:26:21.787Z,5.00
2023-05-12T07:28:51.939Z,4.73
2023-05-12T07:31:20.372Z,4.10
2023-05-12T07:33:48.912Z,4.37
2023-05-12T07:36:17.311Z,6.80
2023-05-12T07:38:45.722Z,6.43
2023-05-12T07:41:14.221Z,7.17
2023-05-12T07:43:42.601Z,4.60
2023-05-12T07:46:12.423Z,5.90
2023-05-12T07:48:40.860Z,4.30
2023-05-12T07:51:09.458Z,4.23
2023-05-12T07:53:37.925Z,8.27
2023-05-12T07:56:08.206Z,5.43
2023-05-12T07:58:36.969Z,5.53
2023-05-12T08:01:06.944Z,4.67
2023-05-12T08:03:36.997Z,3.63
2023-05-12T08:06:07.348Z,4.50
2023-05-12T08:08:36.667Z,8.57
2023-05-12T08:11:05.029Z,5.40
2023-05-12T08:13:33.356Z,5.83
2023-05-12T08:16:01.804Z,4.90
2023-05-12T08:18:30.151Z,3.30
2023-05-12T08:20:59.855Z,5.27
2023-05-12T08:23:28.211Z,5.10
2023-05-12T08:25:56.556Z,5.37
2023-05-12T08:28:24.977Z,4.20
2023-05-12T08:30:53.410Z,3.93
2023-05-12T08:33:22.099Z,10.53
2023-05-12T08:35:50.839Z,8.90
2023-05-12T08:38:21.440Z,6.63
2023-05-12T08:41:02.174Z,10.00
2023-05-12T08:43:43.386Z,7.63
2023-05-12T08:46:13.223Z,10.93
2023-05-12T08:48:42.190Z,6.00
2023-05-12T08:51:13.254Z,4.03
2023-05-12T08:53:43.949Z,4.23
2023-05-12T08:58:47.399Z,5.63
2023-05-12T09:01:17.607Z,5.23
2023-05-12T09:03:46.343Z,4.87
2023-05-12T09:06:15.383Z,4.63
2023-05-12T09:08:46.697Z,4.33
2023-05-12T09:11:15.312Z,4.70
2023-05-12T09:14:03.010Z,5.27
2023-05-12T09:16:33.177Z,7.97
2023-05-12T09:19:06.053Z,11.33
2023-05-12T09:21:35.490Z,5.30
2023-05-12T09:24:07.455Z,3.77
2023-05-12T09:26:47.556Z,4.53
2023-05-12T09:29:27.672Z,4.13
2023-05-12T09:32:01.857Z,4.90
2023-05-12T09:34:31.452Z,13.13
2023-05-12T09:37:02.370Z,4.07
2023-05-12T09:39:32.264Z,11.23
2023-05-12T09:42:00.673Z,4.53
2023-05-12T09:44:30.138Z,5.20
2023-05-12T09:47:07.567Z,5.70
2023-05-12T09:49:35.845Z,4.10
2023-05-12T09:52:06.254Z,4.50
2023-05-12T09:54:36.543Z,8.53
2023-05-12T09:57:06.162Z,4.37
2023-05-12T09:59:36.335Z,7.60
2023-05-12T10:02:07.416Z,5.27
2023-05-12T10:04:46.490Z,5.87
2023-05-12T10:07:16.608Z,4.10
2023-05-12T10:09:48.621Z,8.10
2023-05-12T10:12:18.253Z,8.37
2023-05-12T10:14:47.737Z,4.10
2023-05-12T10:17:16.585Z,4.27
2023-05-12T10:19:46.033Z,7.13
2023-05-12T10:22:17.489Z,6.13
2023-05-12T10:24:48.086Z,7.93
2023-05-12T10:27:17.531Z,11.00
2023-05-12T10:29:48.249Z,9.43
2023-05-12T10:32:17.104Z,5.47
2023-05-12T10:34:46.131Z,4.53
2023-05-12T10:37:14.874Z,6.20
2023-05-12T10:39:50.606Z,7.33
2023-05-12T10:42:26.060Z,18.23
2023-05-12T10:44:55.904Z,4.23
2023-05-12T10:47:27.979Z,7.13
2023-05-12T10:49:58.678Z,12.27
2023-05-12T10:52:29.793Z,6.73
2023-05-12T10:55:04.105Z,3.33
2023-05-12T10:57:34.523Z,4.97
2023-05-12T11:00:04.273Z,4.20
2023-05-12T11:02:36.177Z,8.97
2023-05-12T11:05:13.477Z,5.63
2023-05-12T11:07:42.235Z,5.63
2023-05-12T11:10:13.253Z,3.90
2023-05-12T11:12:45.130Z,5.13
2023-05-12T11:15:18.090Z,4.10
2023-05-12T11:17:47.992Z,5.10
2023-05-12T11:20:24.026Z,10.03
2023-05-12T11:22:52.992Z,3.70
2023-05-12T11:25:23.174Z,6.90
2023-05-12T11:27:52.055Z,3.87
2023-05-12T11:30:21.500Z,4.80
2023-05-12T11:32:50.107Z,7.03
2023-05-12T11:35:20.720Z,3.30
2023-05-12T11:37:49.257Z,3.83
2023-05-12T11:40:19.023Z,3.43
2023-05-12T11:42:52.899Z,4.60
2023-05-12T11:45:23.367Z,4.50
2023-05-12T11:47:52.089Z,4.57
2023-05-12T11:50:25.951Z,4.70
2023-05-12T11:52:55.695Z,4.93
2023-05-12T11:55:25.504Z,3.50
2023-05-12T11:58:03.115Z,16.70
2023-05-12T12:00:34.165Z,4.63
2023-05-12T12:03:16.153Z,3.50
2023-05-12T12:05:59.940Z,3.67
2023-05-12T12:08:28.631Z,3.60
2023-05-12T12:10:57.581Z,4.63
2023-05-12T12:13:27.834Z,4.33
2023-05-12T12:15:56.856Z,4.50
2023-05-12T12:18:25.394Z,6.20
2023-05-12T12:20:53.902Z,4.17
2023-05-12T12:23:22.260Z,11.60
2023-05-12T12:25:50.819Z,3.93
2023-05-12T12:28:19.713Z,9.13
2023-05-12T12:30:49.459Z,16.80
2023-05-12T12:33:20.378Z,9.63
2023-05-12T12:35:49.228Z,5.73
2023-05-12T12:38:17.818Z,3.67
2023-05-12T12:40:46.445Z,4.23
2023-05-12T12:43:15.303Z,6.03
2023-05-12T12:45:43.704Z,3.60
2023-05-12T12:48:13.802Z,3.57
2023-05-12T12:50:42.324Z,4.33
2023-05-12T12:53:10.681Z,3.57
2023-05-12T12:55:39.330Z,8.33
2023-05-12T12:58:07.703Z,4.77
2023-05-12T13:00:36.120Z,5.50
2023-05-12T13:03:04.607Z,3.77
2023-05-12T13:05:34.374Z,11.63
2023-05-12T13:08:02.808Z,11.37
2023-05-12T13:10:31.292Z,18.37
2023-05-12T13:13:00.961Z,18.87
2023-05-12T13:15:29.618Z,7.07
2023-05-12T13:17:58.422Z,8.07
2023-05-12T13:20:27.103Z,5.80
2023-05-12T13:22:57.057Z,5.13
2023-05-12T13:25:26.130Z,4.97
2023-05-12T13:27:54.474Z,5.47
2023-05-12T13:30:25.303Z,5.27
2023-05-12T13:32:53.778Z,4.23
2023-05-12T13:35:22.983Z,3.70
2023-05-12T13:37:51.680Z,4.23
2023-05-12T13:40:21.488Z,4.43
2023-05-12T13:42:49.899Z,4.23
2023-05-12T13:45:19.700Z,4.03
2023-05-12T13:47:48.311Z,3.20
2023-05-12T13:50:16.752Z,12.07
2023-05-12T13:52:45.239Z,4.63
2023-05-12T13:55:20.547Z,6.40
2023-05-12T13:57:51.333Z,9.23
2023-05-12T14:00:20.549Z,6.00
2023-05-12T14:02:49.070Z,4.17
2023-05-12T14:05:17.998Z,4.13
2023-05-12T14:07:47.302Z,4.97
2023-05-12T14:10:15.749Z,4.90
2023-05-12T14:12:45.323Z,3.10
2023-05-12T14:15:28.795Z,14.47
2023-05-12T14:18:03.595Z,5.03
2023-05-12T14:20:32.217Z,4.07
2023-05-12T14:23:00.576Z,8.00
2023-05-12T14:25:30.837Z,3.90
2023-05-12T14:27:59.284Z,7.70
2023-05-12T14:30:29.041Z,3.30
2023-05-12T14:32:57.487Z,3.60
2023-05-12T14:35:27.940Z,3.13
2023-05-12T14:37:56.787Z,4.00
2023-05-12T14:40:25.863Z,5.07
2023-05-12T14:42:54.193Z,4.10
2023-05-12T14:45:23.123Z,3.53
2023-05-12T14:47:53.152Z,4.50
2023-05-12T14:50:21.987Z,5.57
2023-05-12T14:52:50.482Z,5.07
2023-05-12T14:55:19.163Z,4.83
2023-05-12T14:57:48.148Z,4.20
2023-05-12T15:00:17.298Z,5.77
2023-05-12T15:02:46.680Z,3.93
2023-05-12T15:05:17.212Z,5.10
2023-05-12T15:07:45.677Z,3.20
2023-05-12T15:10:13.991Z,4.30
2023-05-12T15:12:42.330Z,3.70
2023-05-12T15:15:12.230Z,3.90
2023-05-12T15:17:40.679Z,3.60
2023-05-12T15:20:10.158Z,7.43
2023-05-12T15:22:40.190Z,3.80
2023-05-12T15:25:09.991Z,3.90
2023-05-12T15:27:38.487Z,3.83
2023-05-12T15:30:08.500Z,9.33
2023-05-12T15:32:36.879Z,7.80
2023-05-12T15:35:05.623Z,6.90
2023-05-12T15:37:34.131Z,5.70
2023-05-12T15:40:04.217Z,8.17
2023-05-12T15:42:33.550Z,3.43
2023-05-12T15:45:02.087Z,4.07
2023-05-12T15:47:30.529Z,5.23
2023-05-12T15:49:59.002Z,3.30
2023-05-12T15:52:27.919Z,5.73
2023-05-12T15:54:56.297Z,5.50
2023-05-12T15:57:26.519Z,14.23
2023-05-12T16:00:00.047Z,22.07
2023-05-12T16:02:28.542Z,7.43
2023-05-12T16:04:56.890Z,10.83
2023-05-12T16:07:29.594Z,14.67
2023-05-12T16:09:58.736Z,14.73
2023-05-12T16:12:28.586Z,4.23
2023-05-12T16:14:56.927Z,7.13
2023-05-12T16:17:25.368Z,4.13
2023-05-12T16:19:56.386Z,8.30
2023-05-12T16:22:25.843Z,9.00
2023-05-12T16:24:55.750Z,6.50
2023-05-12T16:27:24.180Z,7.30
2023-05-12T16:29:53.948Z,6.50
2023-05-12T16:32:22.403Z,4.27
2023-05-12T16:34:50.842Z,5.57
2023-05-12T16:37:19.265Z,4.90
2023-05-12T16:39:47.652Z,6.90
2023-05-12T16:42:16.293Z,4.00
2023-05-12T16:44:44.649Z,6.03
2023-05-12T16:47:14.368Z,9.10
2023-05-12T16:49:42.710Z,8.57
2023-05-12T16:52:12.384Z,12.43
2023-05-12T16:54:42.308Z,7.73
2023-05-12T16:57:10.683Z,7.03
2023-05-12T16:59:39.933Z,5.57
2023-05-12T17:02:08.929Z,7.60
2023-05-12T17:04:39.497Z,7.27
2023-05-12T17:07:07.762Z,6.70
2023-05-12T17:09:36.114Z,6.63
2023-05-12T17:12:05.169Z,7.87
2023-05-12T17:14:34.757Z,4.67
2023-05-12T17:17:03.245Z,5.10
2023-05-12T17:19:32.307Z,4.13
2023-05-12T17:22:02.636Z,6.20
2023-05-12T17:24:31.034Z,7.10
2023-05-12T17:26:59.641Z,5.93
2023-05-12T17:29:28.531Z,5.83
2023-05-12T17:31:57.012Z,10.37
2023-05-12T17:34:25.371Z,5.10
2023-05-12T17:36:53.685Z,6.20
2023-05-12T17:39:23.515Z,3.70
2023-05-12T17:41:51.869Z,14.67
2023-05-12T17:44:20.209Z,7.17
2023-05-12T17:46:49.812Z,6.87
2023-05-12T17:49:18.214Z,6.90
2023-05-12T17:51:47.129Z,4.90
2023-05-12T17:54:15.750Z,4.27
2023-05-12T17:56:45.510Z,5.87
2023-05-12T17:59:13.847Z,5.90
2023-05-12T18:01:42.320Z,13.20
2023-05-12T18:04:10.692Z,5.73
2023-05-12T18:06:39.041Z,7.87
2023-05-12T18:09:08.724Z,9.93
2023-05-12T18:11:37.222Z,4.13
2023-05-12T18:14:07.303Z,6.03
2023-05-12T18:16:35.687Z,4.20
2023-05-12T18:19:04.256Z,4.40
2023-05-12T18:21:32.794Z,5.23
2023-05-12T18:24:01.263Z,5.70
2023-05-12T18:26:30.060Z,8.40
2023-05-12T18:28:58.448Z,5.00
2023-05-12T18:31:28.336Z,6.40
2023-05-12T18:33:56.745Z,5.37
2023-05-12T18:36:25.147Z,4.33
2023-05-12T18:38:53.453Z,6.07
2023-05-12T18:41:21.835Z,7.53
2023-05-12T18:43:50.350Z,5.07
2023-05-12T18:46:18.909Z,6.40
2023-05-12T18:48:48.693Z,21.40
2023-05-12T18:51:17.106Z,30.50
2023-05-12T18:53:45.499Z,48.17
2023-05-12T18:56:13.969Z,32.30
2023-05-12T18:58:42.505Z,20.50
2023-05-12T19:01:11.019Z,32.17
2023-05-12T19:03:39.437Z,41.83
2023-05-12T19:06:09.243Z,61.03
2023-05-12T19:08:38.843Z,33.03
2023-05-12T19:11:07.140Z,23.87
2023-05-12T19:13:40.668Z,38.63
2023-05-12T19:16:09.059Z,44.30
2023-05-12T19:18:37.601Z,54.97
2023-05-12T19:21:06.133Z,26.03
2023-05-12T19:23:36.039Z,33.77
2023-05-12T19:26:04.483Z,28.67
2023-05-12T19:28:32.924Z,33.53
2023-05-12T19:31:01.330Z,54.23
2023-05-12T19:33:29.732Z,29.93
2023-05-12T19:35:58.257Z,38.17
2023-05-12T19:38:26.765Z,32.40
2023-05-12T19:40:56.961Z,37.90
2023-05-12T19:43:25.405Z,43.17
2023-05-12T19:45:53.853Z,24.50
2023-05-12T19:48:22.365Z,10.63
2023-05-12T19:50:50.792Z,12.57
2023-05-12T19:53:19.109Z,17.33
2023-05-12T19:55:47.563Z,10.47
2023-05-12T19:58:17.379Z,7.07
2023-05-12T20:00:45.782Z,7.27
2023-05-12T20:03:14.146Z,5.77
2023-05-12T20:05:42.724Z,6.37
2023-05-12T20:08:11.521Z,9.67
2023-05-12T20:10:40.360Z,7.90
2023-05-12T20:13:08.868Z,5.63
2023-05-12T20:15:40.182Z,7.70
2023-05-12T20:18:08.499Z,12.83
2023-05-12T20:20:36.887Z,28.80
2023-05-12T20:23:05.380Z,28.23
2023-05-12T20:25:36.184Z,7.30
2023-05-12T20:28:04.555Z,14.53
2023-05-12T20:30:32.905Z,14.93
2023-05-12T20:33:02.865Z,24.63
2023-05-12T20:35:31.601Z,31.33
2023-05-12T20:37:59.964Z,5.20
2023-05-12T20:40:28.349Z,12.17
2023-05-12T20:42:56.828Z,4.57
2023-05-12T20:45:25.251Z,11.53
2023-05-12T20:47:53.669Z,17.73
2023-05-12T20:50:23.952Z,12.63
2023-05-12T20:52:52.307Z,6.60
2023-05-12T20:55:21.142Z,4.87
2023-05-12T20:57:49.652Z,4.50
2023-05-12T21:00:18.489Z,5.33
2023-05-12T21:02:49.379Z,6.27
2023-05-12T21:05:17.743Z,4.90
2023-05-12T21:07:47.637Z,8.60
2023-05-12T21:10:15.964Z,7.27
2023-05-12T21:12:44.404Z,20.63
2023-05-12T21:15:13.285Z,12.57
2023-05-12T21:17:42.078Z,5.07
2023-05-12T21:20:12.519Z,3.47
2023-05-12T21:22:41.797Z,4.30
2023-05-12T21:25:11.918Z,4.83
2023-05-12T21:27:41.720Z,3.97
2023-05-12T21:30:11.568Z,9.57
2023-05-12T21:32:40.726Z,5.10
2023-05-12T21:35:09.678Z,4.40
2023-05-12T21:37:38.515Z,25.43
2023-05-12T21:40:08.577Z,6.50
2023-05-12T21:42:38.461Z,4.87
2023-05-12T21:45:07.926Z,3.77
2023-05-12T21:47:36.890Z,3.17
2023-05-12T21:50:05.766Z,3.50
2023-05-12T21:52:34.142Z,8.23
2023-05-12T21:55:04.835Z,4.03
2023-05-12T21:57:33.207Z,5.10
2023-05-12T22:00:04.265Z,3.90
2023-05-12T22:02:32.835Z,2.90
2023-05-12T22:05:01.471Z,7.33
2023-05-12T22:07:29.798Z,7.00
2023-05-12T22:09:58.132Z,6.10
2023-05-12T22:12:26.778Z,4.80
2023-05-12T22:14:55.047Z,13.27
2023-05-12T22:17:24.859Z,3.70
2023-05-12T22:19:53.344Z,5.20
2023-05-12T22:22:21.729Z,4.77
2023-05-12T22:24:50.157Z,4.20
2023-05-12T22:27:22.153Z,5.37
2023-05-12T22:29:50.633Z,3.40
2023-05-12T22:32:18.940Z,5.80
2023-05-12T22:34:48.803Z,4.77
2023-05-12T22:37:17.177Z,3.13
2023-05-12T22:39:45.622Z,3.10
2023-05-12T22:42:14.011Z,3.17
2023-05-12T22:44:42.359Z,4.83
2023-05-12T22:47:10.888Z,3.83
2023-05-12T22:49:39.489Z,2.70
2023-05-12T22:52:09.383Z,7.30
2023-05-12T22:54:37.955Z,3.60
2023-05-12T22:57:06.485Z,5.03
2023-05-12T22:59:34.822Z,3.10
2023-05-12T23:02:03.136Z,7.93
2023-05-12T23:04:31.674Z,19.53
2023-05-12T23:07:00.026Z,6.43
2023-05-12T23:09:30.008Z,9.30
2023-05-12T23:11:58.514Z,3.03
2023-05-12T23:14:26.854Z,6.60
2023-05-12T23:16:55.284Z,3.63
2023-05-12T23:19:23.719Z,14.03
2023-05-12T23:21:52.201Z,9.97
2023-05-12T23:24:20.652Z,6.83
2023-05-12T23:26:50.789Z,2.80
2023-05-12T23:29:19.092Z,3.27
2023-05-12T23:31:47.999Z,2.77
2023-05-12T23:34:16.434Z,2.67
2023-05-12T23:36:44.743Z,3.40
2023-05-12T23:39:13.728Z,2.70
2023-05-12T23:41:42.291Z,3.13
2023-05-12T23:44:12.060Z,3.10
2023-05-12T23:46:40.952Z,3.17
2023-05-12T23:49:09.626Z,4.30
2023-05-12T23:51:38.073Z,5.63
2023-05-12T23:54:06.656Z,2.60
2023-05-12T23:56:35.146Z,3.30
2023-05-12T23:59:03.643Z,3.00
